sensor_id;sensor_type;location;lat;lon;timestamp;P1;durP1;ratioP1;P2;durP2;ratioP2
18592;SDS011;9426;54.118;17.948;2022-11-20T00:05:02;36.43;;;17.87;;
18592;SDS011;9426;54.118;17.948;2022-11-20T00:10:26;36.40;;;18.70;;
18592;SDS011;9426;54.118;17.948;2022-11-20T00:15:56;36.97;;;18.60;;
18592;SDS011;9426;54.118;17.948;2022-11-20T00:21:22;49.60;;;21.90;;
18592;SDS011;9426;54.118;17.948;2022-11-20T00:26:46;50.80;;;22.47;;
18592;SDS011;9426;54.118;17.948;2022-11-20T00:32:10;52.13;;;24.17;;
18592;SDS011;9426;54.118;17.948;2022-11-20T00:37:35;59.93;;;27.10;;
18592;SDS011;9426;54.118;17.948;2022-11-20T00:42:58;57.33;;;26.63;;
18592;SDS011;9426;54.118;17.948;2022-11-20T00:48:22;53.50;;;24.63;;
18592;SDS011;9426;54.118;17.948;2022-11-20T00:53:47;79.83;;;32.80;;
18592;SDS011;9426;54.118;17.948;2022-11-20T00:59:11;53.97;;;23.93;;
18592;SDS011;9426;54.118;17.948;2022-11-20T01:04:35;49.60;;;24.17;;
18592;SDS011;9426;54.118;17.948;2022-11-20T01:09:59;54.63;;;25.63;;
18592;SDS011;9426;54.118;17.948;2022-11-20T01:15:23;56.90;;;24.60;;
18592;SDS011;9426;54.118;17.948;2022-11-20T01:20:46;48.67;;;22.93;;
18592;SDS011;9426;54.118;17.948;2022-11-20T01:26:12;48.17;;;22.93;;
18592;SDS011;9426;54.118;17.948;2022-11-20T01:31:37;63.77;;;27.13;;
18592;SDS011;9426;54.118;17.948;2022-11-20T01:37:00;63.27;;;27.20;;
18592;SDS011;9426;54.118;17.948;2022-11-20T01:42:25;48.57;;;21.80;;
18592;SDS011;9426;54.118;17.948;2022-11-20T01:48:01;43.10;;;21.60;;
18592;SDS011;9426;54.118;17.948;2022-11-20T01:53:26;53.10;;;24.13;;
18592;SDS011;9426;54.118;17.948;2022-11-20T01:58:56;42.07;;;20.17;;
18592;SDS011;9426;54.118;17.948;2022-11-20T02:04:23;36.67;;;18.57;;
18592;SDS011;9426;54.118;17.948;2022-11-20T02:09:48;39.90;;;20.00;;
18592;SDS011;9426;54.118;17.948;2022-11-20T02:15:14;44.40;;;19.13;;
18592;SDS011;9426;54.118;17.948;2022-11-20T02:20:38;36.83;;;18.90;;
18592;SDS011;9426;54.118;17.948;2022-11-20T02:26:04;37.43;;;17.70;;
18592;SDS011;9426;54.118;17.948;2022-11-20T02:31:34;37.80;;;18.23;;
18592;SDS011;9426;54.118;17.948;2022-11-20T02:37:00;43.20;;;20.97;;
18592;SDS011;9426;54.118;17.948;2022-11-20T02:42:25;51.37;;;23.07;;
18592;SDS011;9426;54.118;17.948;2022-11-20T02:47:48;46.27;;;22.00;;
18592;SDS011;9426;54.118;17.948;2022-11-20T02:53:12;45.30;;;22.33;;
18592;SDS011;9426;54.118;17.948;2022-11-20T02:58:37;46.17;;;22.87;;
18592;SDS011;9426;54.118;17.948;2022-11-20T03:04:00;54.47;;;25.80;;
18592;SDS011;9426;54.118;17.948;2022-11-20T03:09:23;44.90;;;23.60;;
18592;SDS011;9426;54.118;17.948;2022-11-20T03:14:48;52.83;;;25.10;;
18592;SDS011;9426;54.118;17.948;2022-11-20T03:20:13;48.93;;;24.40;;
18592;SDS011;9426;54.118;17.948;2022-11-20T03:25:36;47.87;;;22.80;;
18592;SDS011;9426;54.118;17.948;2022-11-20T03:31:05;54.60;;;25.67;;
18592;SDS011;9426;54.118;17.948;2022-11-20T03:36:30;55.30;;;26.10;;
18592;SDS011;9426;54.118;17.948;2022-11-20T03:41:54;56.83;;;27.17;;
18592;SDS011;9426;54.118;17.948;2022-11-20T03:47:19;62.83;;;29.40;;
18592;SDS011;9426;54.118;17.948;2022-11-20T03:52:42;59.17;;;28.17;;
18592;SDS011;9426;54.118;17.948;2022-11-20T03:58:05;60.40;;;29.40;;
18592;SDS011;9426;54.118;17.948;2022-11-20T04:03:30;63.27;;;28.80;;
18592;SDS011;9426;54.118;17.948;2022-11-20T04:08:54;65.10;;;29.50;;
18592;SDS011;9426;54.118;17.948;2022-11-20T04:14:18;66.80;;;30.50;;
18592;SDS011;9426;54.118;17.948;2022-11-20T04:19:43;73.03;;;33.40;;
18592;SDS011;9426;54.118;17.948;2022-11-20T04:25:06;72.20;;;31.73;;
18592;SDS011;9426;54.118;17.948;2022-11-20T04:30:31;80.90;;;34.27;;
18592;SDS011;9426;54.118;17.948;2022-11-20T04:35:59;82.47;;;35.90;;
18592;SDS011;9426;54.118;17.948;2022-11-20T04:41:25;70.23;;;32.43;;
18592;SDS011;9426;54.118;17.948;2022-11-20T04:46:49;69.83;;;29.90;;
18592;SDS011;9426;54.118;17.948;2022-11-20T04:52:14;66.37;;;28.10;;
18592;SDS011;9426;54.118;17.948;2022-11-20T04:57:37;59.80;;;28.03;;
18592;SDS011;9426;54.118;17.948;2022-11-20T05:03:01;67.43;;;28.03;;
18592;SDS011;9426;54.118;17.948;2022-11-20T05:08:25;65.77;;;27.77;;
18592;SDS011;9426;54.118;17.948;2022-11-20T05:13:50;64.07;;;25.67;;
18592;SDS011;9426;54.118;17.948;2022-11-20T05:19:14;62.43;;;26.47;;
18592;SDS011;9426;54.118;17.948;2022-11-20T05:24:39;66.27;;;27.00;;
18592;SDS011;9426;54.118;17.948;2022-11-20T05:30:03;67.37;;;26.57;;
18592;SDS011;9426;54.118;17.948;2022-11-20T05:35:27;64.40;;;27.57;;
18592;SDS011;9426;54.118;17.948;2022-11-20T05:40:52;73.07;;;31.47;;
18592;SDS011;9426;54.118;17.948;2022-11-20T05:46:18;66.50;;;29.37;;
18592;SDS011;9426;54.118;17.948;2022-11-20T05:51:48;61.17;;;27.47;;
18592;SDS011;9426;54.118;17.948;2022-11-20T05:57:12;68.53;;;29.30;;
18592;SDS011;9426;54.118;17.948;2022-11-20T06:02:36;66.77;;;27.77;;
18592;SDS011;9426;54.118;17.948;2022-11-20T06:08:00;71.83;;;28.73;;
18592;SDS011;9426;54.118;17.948;2022-11-20T06:13:25;67.20;;;27.10;;
18592;SDS011;9426;54.118;17.948;2022-11-20T06:18:48;66.83;;;27.37;;
18592;SDS011;9426;54.118;17.948;2022-11-20T06:24:12;69.00;;;27.53;;
18592;SDS011;9426;54.118;17.948;2022-11-20T06:29:37;64.43;;;25.57;;
18592;SDS011;9426;54.118;17.948;2022-11-20T06:35:00;68.80;;;27.30;;
18592;SDS011;9426;54.118;17.948;2022-11-20T06:40:24;65.50;;;25.97;;
18592;SDS011;9426;54.118;17.948;2022-11-20T06:45:52;64.43;;;25.73;;
18592;SDS011;9426;54.118;17.948;2022-11-20T06:51:16;69.03;;;27.13;;
18592;SDS011;9426;54.118;17.948;2022-11-20T06:56:40;66.33;;;26.07;;
18592;SDS011;9426;54.118;17.948;2022-11-20T07:02:05;67.97;;;26.93;;
18592;SDS011;9426;54.118;17.948;2022-11-20T07:07:31;70.90;;;28.23;;
18592;SDS011;9426;54.118;17.948;2022-11-20T07:12:54;64.63;;;26.30;;
18592;SDS011;9426;54.118;17.948;2022-11-20T07:18:19;70.37;;;27.23;;
18592;SDS011;9426;54.118;17.948;2022-11-20T07:23:43;69.80;;;28.23;;
18592;SDS011;9426;54.118;17.948;2022-11-20T07:29:07;71.10;;;26.87;;
18592;SDS011;9426;54.118;17.948;2022-11-20T07:34:32;71.80;;;27.40;;
18592;SDS011;9426;54.118;17.948;2022-11-20T07:39:55;66.50;;;26.37;;
18592;SDS011;9426;54.118;17.948;2022-11-20T07:45:19;63.90;;;25.97;;
18592;SDS011;9426;54.118;17.948;2022-11-20T07:50:45;70.90;;;26.87;;
18592;SDS011;9426;54.118;17.948;2022-11-20T07:56:09;68.47;;;28.00;;
18592;SDS011;9426;54.118;17.948;2022-11-20T08:01:34;64.53;;;26.30;;
18592;SDS011;9426;54.118;17.948;2022-11-20T08:07:00;71.90;;;28.03;;
18592;SDS011;9426;54.118;17.948;2022-11-20T08:12:24;75.83;;;30.17;;
18592;SDS011;9426;54.118;17.948;2022-11-20T08:18:07;71.20;;;28.17;;
18592;SDS011;9426;54.118;17.948;2022-11-20T08:23:54;71.63;;;27.27;;
18592;SDS011;9426;54.118;17.948;2022-11-20T08:29:18;69.13;;;28.40;;
18592;SDS011;9426;54.118;17.948;2022-11-20T08:34:42;74.37;;;30.53;;
18592;SDS011;9426;54.118;17.948;2022-11-20T08:40:08;76.77;;;28.53;;
18592;SDS011;9426;54.118;17.948;2022-11-20T08:45:35;78.77;;;31.17;;
18592;SDS011;9426;54.118;17.948;2022-11-20T08:50:59;77.20;;;30.93;;
18592;SDS011;9426;54.118;17.948;2022-11-20T08:56:25;73.00;;;27.57;;
18592;SDS011;9426;54.118;17.948;2022-11-20T09:01:49;88.17;;;32.13;;
18592;SDS011;9426;54.118;17.948;2022-11-20T09:07:14;77.57;;;29.17;;
18592;SDS011;9426;54.118;17.948;2022-11-20T09:12:41;64.40;;;25.20;;
18592;SDS011;9426;54.118;17.948;2022-11-20T09:18:05;62.03;;;25.00;;
18592;SDS011;9426;54.118;17.948;2022-11-20T09:23:31;70.37;;;25.33;;
18592;SDS011;9426;54.118;17.948;2022-11-20T09:28:58;63.43;;;25.20;;
18592;SDS011;9426;54.118;17.948;2022-11-20T09:34:21;56.70;;;21.77;;
18592;SDS011;9426;54.118;17.948;2022-11-20T09:39:46;56.23;;;24.00;;
18592;SDS011;9426;54.118;17.948;2022-11-20T09:45:23;53.90;;;22.50;;
18592;SDS011;9426;54.118;17.948;2022-11-20T09:51:02;56.63;;;22.63;;
18592;SDS011;9426;54.118;17.948;2022-11-20T09:56:33;55.57;;;23.37;;
18592;SDS011;9426;54.118;17.948;2022-11-20T10:02:01;52.57;;;22.40;;
18592;SDS011;9426;54.118;17.948;2022-11-20T10:07:30;71.90;;;30.27;;
18592;SDS011;9426;54.118;17.948;2022-11-20T10:13:17;58.03;;;23.70;;
18592;SDS011;9426;54.118;17.948;2022-11-20T10:19:01;53.37;;;23.47;;
18592;SDS011;9426;54.118;17.948;2022-11-20T10:24:44;61.20;;;24.33;;
18592;SDS011;9426;54.118;17.948;2022-11-20T10:30:18;54.70;;;22.33;;
18592;SDS011;9426;54.118;17.948;2022-11-20T10:35:49;50.40;;;20.47;;
18592;SDS011;9426;54.118;17.948;2022-11-20T10:41:21;57.33;;;24.43;;
18592;SDS011;9426;54.118;17.948;2022-11-20T10:52:49;54.97;;;22.40;;
18592;SDS011;9426;54.118;17.948;2022-11-20T10:58:21;61.33;;;25.63;;
18592;SDS011;9426;54.118;17.948;2022-11-20T11:03:53;59.67;;;24.67;;
18592;SDS011;9426;54.118;17.948;2022-11-20T11:09:29;48.73;;;20.87;;
18592;SDS011;9426;54.118;17.948;2022-11-20T11:15:04;51.30;;;22.33;;
18592;SDS011;9426;54.118;17.948;2022-11-20T11:20:50;49.17;;;21.83;;
18592;SDS011;9426;54.118;17.948;2022-11-20T11:26:20;50.90;;;21.67;;
18592;SDS011;9426;54.118;17.948;2022-11-20T11:31:45;63.63;;;27.40;;
18592;SDS011;9426;54.118;17.948;2022-11-20T11:55:09;33.03;;;16.43;;
18592;SDS011;9426;54.118;17.948;2022-11-20T12:00:37;35.27;;;16.47;;
18592;SDS011;9426;54.118;17.948;2022-11-20T12:06:05;38.53;;;18.53;;
18592;SDS011;9426;54.118;17.948;2022-11-20T12:11:37;40.37;;;19.50;;
18592;SDS011;9426;54.118;17.948;2022-11-20T12:17:07;39.83;;;19.83;;
18592;SDS011;9426;54.118;17.948;2022-11-20T12:22:35;43.50;;;20.83;;
18592;SDS011;9426;54.118;17.948;2022-11-20T12:28:18;62.00;;;29.30;;
18592;SDS011;9426;54.118;17.948;2022-11-20T12:34:19;40.30;;;20.43;;
18592;SDS011;9426;54.118;17.948;2022-11-20T12:39:50;35.77;;;17.77;;
18592;SDS011;9426;54.118;17.948;2022-11-20T12:45:30;39.80;;;20.03;;
18592;SDS011;9426;54.118;17.948;2022-11-20T12:51:23;41.97;;;20.63;;
18592;SDS011;9426;54.118;17.948;2022-11-20T12:57:09;40.23;;;18.93;;
18592;SDS011;9426;54.118;17.948;2022-11-20T13:02:44;35.37;;;17.03;;
18592;SDS011;9426;54.118;17.948;2022-11-20T13:08:33;32.57;;;17.10;;
18592;SDS011;9426;54.118;17.948;2022-11-20T13:14:04;38.43;;;19.03;;
18592;SDS011;9426;54.118;17.948;2022-11-20T13:19:41;51.90;;;23.27;;
18592;SDS011;9426;54.118;17.948;2022-11-20T13:25:09;39.33;;;19.07;;
18592;SDS011;9426;54.118;17.948;2022-11-20T13:30:36;41.43;;;21.23;;
18592;SDS011;9426;54.118;17.948;2022-11-20T13:36:21;36.80;;;18.87;;
18592;SDS011;9426;54.118;17.948;2022-11-20T13:41:53;30.97;;;15.83;;
18592;SDS011;9426;54.118;17.948;2022-11-20T13:47:20;31.20;;;15.57;;
18592;SDS011;9426;54.118;17.948;2022-11-20T13:52:49;28.43;;;14.67;;
18592;SDS011;9426;54.118;17.948;2022-11-20T13:58:22;29.80;;;15.63;;
18592;SDS011;9426;54.118;17.948;2022-11-20T14:03:53;24.93;;;13.77;;
18592;SDS011;9426;54.118;17.948;2022-11-20T14:09:27;28.50;;;14.23;;
18592;SDS011;9426;54.118;17.948;2022-11-20T14:14:52;61.73;;;31.73;;
18592;SDS011;9426;54.118;17.948;2022-11-20T14:20:16;26.33;;;14.27;;
18592;SDS011;9426;54.118;17.948;2022-11-20T14:25:45;29.00;;;14.80;;
18592;SDS011;9426;54.118;17.948;2022-11-20T14:31:09;25.50;;;13.70;;
18592;SDS011;9426;54.118;17.948;2022-11-20T14:36:45;29.63;;;15.27;;
18592;SDS011;9426;54.118;17.948;2022-11-20T14:42:18;32.30;;;16.30;;
18592;SDS011;9426;54.118;17.948;2022-11-20T14:47:42;37.80;;;20.27;;
18592;SDS011;9426;54.118;17.948;2022-11-20T14:53:06;29.27;;;16.37;;
18592;SDS011;9426;54.118;17.948;2022-11-20T14:58:32;30.93;;;17.27;;
18592;SDS011;9426;54.118;17.948;2022-11-20T15:03:59;31.40;;;15.57;;
18592;SDS011;9426;54.118;17.948;2022-11-20T15:09:24;36.73;;;19.10;;
18592;SDS011;9426;54.118;17.948;2022-11-20T15:14:50;37.77;;;19.50;;
18592;SDS011;9426;54.118;17.948;2022-11-20T15:20:15;30.97;;;17.53;;
18592;SDS011;9426;54.118;17.948;2022-11-20T15:25:39;33.80;;;17.73;;
18592;SDS011;9426;54.118;17.948;2022-11-20T15:31:05;29.80;;;16.37;;
18592;SDS011;9426;54.118;17.948;2022-11-20T15:36:30;29.53;;;15.77;;
18592;SDS011;9426;54.118;17.948;2022-11-20T15:41:53;32.30;;;16.33;;
18592;SDS011;9426;54.118;17.948;2022-11-20T15:47:18;34.47;;;16.50;;
18592;SDS011;9426;54.118;17.948;2022-11-20T15:52:43;34.20;;;17.53;;
18592;SDS011;9426;54.118;17.948;2022-11-20T15:58:07;35.37;;;18.73;;
18592;SDS011;9426;54.118;17.948;2022-11-20T16:03:32;35.87;;;19.30;;
18592;SDS011;9426;54.118;17.948;2022-11-20T16:08:55;32.63;;;17.37;;
18592;SDS011;9426;54.118;17.948;2022-11-20T16:14:19;37.87;;;19.03;;
18592;SDS011;9426;54.118;17.948;2022-11-20T16:20:02;38.00;;;19.63;;
18592;SDS011;9426;54.118;17.948;2022-11-20T16:25:26;39.30;;;20.37;;
18592;SDS011;9426;54.118;17.948;2022-11-20T16:30:50;36.60;;;20.30;;
18592;SDS011;9426;54.118;17.948;2022-11-20T16:36:15;42.07;;;21.10;;
18592;SDS011;9426;54.118;17.948;2022-11-20T16:41:39;42.83;;;22.13;;
18592;SDS011;9426;54.118;17.948;2022-11-20T16:47:03;43.67;;;21.83;;
18592;SDS011;9426;54.118;17.948;2022-11-20T16:52:28;43.10;;;22.67;;
18592;SDS011;9426;54.118;17.948;2022-11-20T16:57:53;48.53;;;24.33;;
18592;SDS011;9426;54.118;17.948;2022-11-20T17:03:19;49.57;;;25.63;;
18592;SDS011;9426;54.118;17.948;2022-11-20T17:08:46;49.87;;;24.50;;
18592;SDS011;9426;54.118;17.948;2022-11-20T17:14:11;49.90;;;25.50;;
18592;SDS011;9426;54.118;17.948;2022-11-20T17:19:35;53.20;;;26.47;;
18592;SDS011;9426;54.118;17.948;2022-11-20T17:25:00;57.60;;;27.07;;
18592;SDS011;9426;54.118;17.948;2022-11-20T17:30:24;53.67;;;26.97;;
18592;SDS011;9426;54.118;17.948;2022-11-20T17:35:47;64.20;;;30.33;;
18592;SDS011;9426;54.118;17.948;2022-11-20T17:41:13;57.60;;;27.70;;
18592;SDS011;9426;54.118;17.948;2022-11-20T17:46:38;61.97;;;30.10;;
18592;SDS011;9426;54.118;17.948;2022-11-20T17:52:02;66.80;;;31.50;;
18592;SDS011;9426;54.118;17.948;2022-11-20T17:57:27;67.33;;;30.83;;
18592;SDS011;9426;54.118;17.948;2022-11-20T18:03:10;58.90;;;28.00;;
18592;SDS011;9426;54.118;17.948;2022-11-20T18:08:39;61.13;;;28.77;;
18592;SDS011;9426;54.118;17.948;2022-11-20T18:14:05;61.03;;;28.30;;
18592;SDS011;9426;54.118;17.948;2022-11-20T18:19:53;62.87;;;29.93;;
18592;SDS011;9426;54.118;17.948;2022-11-20T18:25:34;62.90;;;30.37;;
18592;SDS011;9426;54.118;17.948;2022-11-20T18:31:04;60.07;;;28.47;;
18592;SDS011;9426;54.118;17.948;2022-11-20T18:36:29;67.93;;;30.47;;
18592;SDS011;9426;54.118;17.948;2022-11-20T18:41:54;68.43;;;31.53;;
18592;SDS011;9426;54.118;17.948;2022-11-20T18:47:36;70.40;;;32.87;;
18592;SDS011;9426;54.118;17.948;2022-11-20T18:53:00;61.60;;;28.33;;
18592;SDS011;9426;54.118;17.948;2022-11-20T18:58:24;61.87;;;28.73;;
18592;SDS011;9426;54.118;17.948;2022-11-20T19:03:51;58.17;;;26.93;;
18592;SDS011;9426;54.118;17.948;2022-11-20T19:09:15;57.93;;;27.20;;
18592;SDS011;9426;54.118;17.948;2022-11-20T19:14:39;56.47;;;25.63;;
18592;SDS011;9426;54.118;17.948;2022-11-20T19:20:05;57.40;;;27.33;;
18592;SDS011;9426;54.118;17.948;2022-11-20T19:25:29;63.13;;;28.43;;
18592;SDS011;9426;54.118;17.948;2022-11-20T19:31:00;63.53;;;28.80;;
18592;SDS011;9426;54.118;17.948;2022-11-20T19:36:27;57.73;;;28.03;;
18592;SDS011;9426;54.118;17.948;2022-11-20T19:41:52;57.13;;;28.10;;
18592;SDS011;9426;54.118;17.948;2022-11-20T19:47:16;59.17;;;28.13;;
18592;SDS011;9426;54.118;17.948;2022-11-20T19:52:41;59.77;;;27.40;;
18592;SDS011;9426;54.118;17.948;2022-11-20T19:58:05;54.70;;;25.30;;
18592;SDS011;9426;54.118;17.948;2022-11-20T20:03:31;64.57;;;28.60;;
18592;SDS011;9426;54.118;17.948;2022-11-20T20:09:02;54.20;;;26.47;;
18592;SDS011;9426;54.118;17.948;2022-11-20T20:14:28;52.47;;;25.20;;
18592;SDS011;9426;54.118;17.948;2022-11-20T20:19:54;52.17;;;24.90;;
18592;SDS011;9426;54.118;17.948;2022-11-20T20:25:28;50.60;;;25.20;;
18592;SDS011;9426;54.118;17.948;2022-11-20T20:30:55;53.70;;;25.40;;
18592;SDS011;9426;54.118;17.948;2022-11-20T20:36:21;52.20;;;26.03;;
18592;SDS011;9426;54.118;17.948;2022-11-20T20:41:50;54.37;;;25.57;;
18592;SDS011;9426;54.118;17.948;2022-11-20T20:47:20;51.23;;;24.23;;
18592;SDS011;9426;54.118;17.948;2022-11-20T20:52:46;53.70;;;25.17;;
18592;SDS011;9426;54.118;17.948;2022-11-20T20:58:15;49.00;;;23.27;;
18592;SDS011;9426;54.118;17.948;2022-11-20T21:03:42;46.73;;;22.53;;
18592;SDS011;9426;54.118;17.948;2022-11-20T21:09:09;52.23;;;24.07;;
18592;SDS011;9426;54.118;17.948;2022-11-20T21:14:39;43.80;;;22.83;;
18592;SDS011;9426;54.118;17.948;2022-11-20T21:20:07;54.57;;;25.00;;
18592;SDS011;9426;54.118;17.948;2022-11-20T21:25:58;50.40;;;24.67;;
18592;SDS011;9426;54.118;17.948;2022-11-20T21:31:29;46.83;;;22.67;;
18592;SDS011;9426;54.118;17.948;2022-11-20T21:36:56;51.53;;;23.53;;
18592;SDS011;9426;54.118;17.948;2022-11-20T21:42:22;45.23;;;22.60;;
18592;SDS011;9426;54.118;17.948;2022-11-20T21:47:50;40.90;;;21.73;;
18592;SDS011;9426;54.118;17.948;2022-11-20T21:53:19;47.53;;;23.40;;
18592;SDS011;9426;54.118;17.948;2022-11-20T21:58:48;42.93;;;21.27;;
18592;SDS011;9426;54.118;17.948;2022-11-20T22:04:18;44.10;;;21.80;;
18592;SDS011;9426;54.118;17.948;2022-11-20T22:09:43;45.60;;;23.87;;
18592;SDS011;9426;54.118;17.948;2022-11-20T22:15:09;43.13;;;22.57;;
18592;SDS011;9426;54.118;17.948;2022-11-20T22:20:34;41.83;;;20.53;;
18592;SDS011;9426;54.118;17.948;2022-11-20T22:26:01;42.93;;;22.07;;
18592;SDS011;9426;54.118;17.948;2022-11-20T22:31:27;46.20;;;21.23;;
18592;SDS011;9426;54.118;17.948;2022-11-20T22:36:53;40.33;;;21.07;;
18592;SDS011;9426;54.118;17.948;2022-11-20T22:42:18;42.30;;;21.40;;
18592;SDS011;9426;54.118;17.948;2022-11-20T22:47:42;53.13;;;23.97;;
18592;SDS011;9426;54.118;17.948;2022-11-20T22:53:08;43.50;;;21.57;;
18592;SDS011;9426;54.118;17.948;2022-11-20T22:58:32;48.90;;;23.53;;
18592;SDS011;9426;54.118;17.948;2022-11-20T23:03:58;51.27;;;22.50;;
18592;SDS011;9426;54.118;17.948;2022-11-20T23:09:25;47.23;;;22.37;;
18592;SDS011;9426;54.118;17.948;2022-11-20T23:14:48;46.00;;;22.47;;
18592;SDS011;9426;54.118;17.948;2022-11-20T23:20:12;53.37;;;23.63;;
18592;SDS011;9426;54.118;17.948;2022-11-20T23:25:37;45.00;;;20.50;;
18592;SDS011;9426;54.118;17.948;2022-11-20T23:31:00;47.13;;;21.83;;
18592;SDS011;9426;54.118;17.948;2022-11-20T23:36:25;47.90;;;21.00;;
18592;SDS011;9426;54.118;17.948;2022-11-20T23:41:50;47.10;;;21.40;;
18592;SDS011;9426;54.118;17.948;2022-11-20T23:47:14;48.00;;;21.20;;
18592;SDS011;9426;54.118;17.948;2022-11-20T23:52:37;48.83;;;21.87;;
18592;SDS011;9426;54.118;17.948;2022-11-20T23:58:02;55.03;;;23.03;;
